Weather History for KACB - October, 2012

Change the Weather History Date:

Friday, October 5, 2012

  Actual Average (KTVC) Record (KTVC)
Temperature  
Mean Temperature 54 °F 52 °F  
Max Temperature 59 °F 62 °F 87 °F (1922)
Min Temperature 48 °F 43 °F 25 °F (1965)
Degree Days  
Heating Degree Days 12 13  
Month to date heating degree days 62  
Since 1 July heating degree days 324  
Cooling Degree Days 0 0  
Month to date cooling degree days 0  
Year to date cooling degree days 407  
Growing Degree Days 4 (Base 50)    
Moisture  
Dew Point 36 °F    
Average Humidity 56    
Maximum Humidity 63    
Minimum Humidity 47    
Precipitation  
Precipitation 0.00 in 0.11 in 2.26 in (2013)
Month to date precipitation 0.54  
Year to date precipitation 25.18  
Sea Level Pressure  
Sea Level Pressure 29.93 in    
Wind  
Wind Speed 9 mph (West)    
Max Wind Speed 14 mph    
Max Gust Speed 24 mph    
Visibility 10 miles    
Events      
T = Trace of Precipitation, MM = Missing Value Source: NWS Daily Summary

Daily Weather History Graph

Daily Weather History Graph

Search for Another Location

Airport or City:

Trip Planner

Search our weather history database for the weather conditions in past years. The results will help you decide how hot, cold, wet, or windy it might be!

Date:

Astronomy

Oct. 05, 2012 Rise Set
Actual Time 7:44 AM EDT 7:12 PM EDT
Civil Twilight 7:15 AM EDT 7:42 PM EDT
Nautical Twilight 6:41 AM EDT 8:16 PM EDT
Astronomical Twilight 6:06 AM EDT 8:50 PM EDT
Moon 10:23 PM EDT (10/5) 1:03 PM EDT (10/5)
Length of Visible Light 12h 27m
Length of Day
11h 28m
Waning Gibbous, 74% of the Moon is Illuminated
Oct 5
Waning Gibbous
Oct 8
Last Quarter
Oct 15
New
Oct 21
First Quarter
Oct 29
Full

Hourly Weather History & Observations

Time (EDT) Temp. Dew Point Humidity Pressure Visibility Wind Dir Wind Speed Gust Speed Precip Events Conditions
12:12 AM 59.2 °F 42.8 °F 55% 29.91 in 10.0 mi WNW 6.9 mph - N/A   Clear
12:33 AM 58.1 °F 41.9 °F 55% 29.92 in 10.0 mi WNW 11.5 mph 19.6 mph N/A   Clear
12:53 AM 57.0 °F 42.3 °F 58% 29.93 in 10.0 mi West 11.5 mph 17.3 mph N/A   Scattered Clouds
1:12 AM 56.3 °F 40.5 °F 55% 29.93 in 10.0 mi West 10.4 mph 20.7 mph N/A   Clear
1:33 AM 55.4 °F 39.6 °F 55% 29.94 in 10.0 mi SW 5.8 mph 16.1 mph N/A   Clear
1:53 AM 54.7 °F 39.6 °F 57% 29.94 in 10.0 mi WNW 10.4 mph - N/A   Mostly Cloudy
2:13 AM 54.7 °F 40.3 °F 58% 29.95 in 10.0 mi SW 5.8 mph - N/A   Overcast
2:33 AM 54.7 °F 40.8 °F 60% 29.95 in 10.0 mi West 5.8 mph - N/A   Overcast
2:52 AM 53.6 °F 39.4 °F 59% 29.96 in 10.0 mi WSW 5.8 mph - N/A   Overcast
3:13 AM 53.2 °F 39.2 °F 59% 29.96 in 10.0 mi West 9.2 mph 19.6 mph N/A   Overcast
3:33 AM 51.8 °F 37.9 °F 59% 29.95 in 10.0 mi West 10.4 mph 21.9 mph N/A   Scattered Clouds
3:52 AM 51.1 °F 38.3 °F 62% 29.95 in 10.0 mi West 8.1 mph - N/A   Scattered Clouds
4:13 AM 51.1 °F 38.5 °F 62% 29.95 in 10.0 mi West 6.9 mph - N/A   Mostly Cloudy
4:33 AM 50.9 °F 38.5 °F 62% 29.95 in 10.0 mi West 5.8 mph - N/A   Overcast
4:52 AM 51.1 °F 38.3 °F 62% 29.96 in 10.0 mi West 10.4 mph 20.7 mph N/A   Overcast
5:13 AM 50.9 °F 38.3 °F 62% 29.96 in 10.0 mi WSW 6.9 mph - N/A   Overcast
5:33 AM 50.4 °F 37.4 °F 61% 29.96 in 10.0 mi West 10.4 mph 18.4 mph N/A   Mostly Cloudy
5:53 AM 49.6 °F 36.7 °F 61% 29.95 in 10.0 mi West 8.1 mph - N/A   Mostly Cloudy
6:13 AM 49.6 °F 37.4 °F 63% 29.95 in 10.0 mi West 10.4 mph 18.4 mph N/A   Mostly Cloudy
6:33 AM 49.6 °F 37.6 °F 63% 29.95 in 10.0 mi West 5.8 mph - N/A   Overcast
6:53 AM 48.7 °F 36.5 °F 63% 29.95 in 10.0 mi West 12.7 mph 24.2 mph N/A   Mostly Cloudy
7:13 AM 48.7 °F 36.5 °F 63% 29.96 in 10.0 mi WSW 9.2 mph 16.1 mph N/A   Overcast
7:32 AM 49.1 °F 36.5 °F 62% 29.95 in 10.0 mi West 9.2 mph 18.4 mph N/A   Overcast
7:53 AM 49.1 °F 37.0 °F 63% 29.95 in 10.0 mi West 10.4 mph 18.4 mph N/A   Overcast
8:13 AM 48.7 °F 36.0 °F 61% 29.96 in 10.0 mi West 11.5 mph 20.7 mph N/A   Overcast
8:32 AM 48.6 °F 36.0 °F 62% 29.96 in 10.0 mi West 8.1 mph 17.3 mph N/A   Overcast
8:53 AM 48.6 °F 36.0 °F 62% 29.96 in 10.0 mi West 10.4 mph 17.3 mph N/A   Overcast
9:13 AM 48.6 °F 36.5 °F 63% 29.97 in 10.0 mi West 13.8 mph 20.7 mph N/A   Overcast
9:33 AM 48.2 °F 36.1 °F 63% 29.96 in 10.0 mi West 8.1 mph - N/A   Overcast
9:53 AM 48.2 °F 35.6 °F 62% 29.97 in 10.0 mi West 9.2 mph - N/A   Overcast
10:13 AM 48.2 °F 35.1 °F 60% 29.97 in 10.0 mi West 5.8 mph - N/A   Overcast
10:33 AM 48.2 °F 35.8 °F 62% 29.98 in 10.0 mi West 10.4 mph 18.4 mph N/A   Overcast
10:53 AM 48.7 °F 36.1 °F 62% 29.97 in 10.0 mi West 6.9 mph - N/A   Overcast
11:13 AM 49.1 °F 35.6 °F 60% 29.97 in 10.0 mi West 8.1 mph - N/A   Overcast
11:33 AM 49.1 °F 35.8 °F 60% 29.97 in 10.0 mi West 10.4 mph 19.6 mph N/A   Mostly Cloudy
11:53 AM 49.3 °F 36.5 °F 61% 29.97 in 10.0 mi West 6.9 mph - N/A   Overcast
12:33 PM 52.5 °F 36.3 °F 54% 29.96 in 10.0 mi WSW 8.1 mph 19.6 mph N/A   Overcast
12:53 PM 50.7 °F 35.2 °F 55% 29.96 in 10.0 mi WSW 10.4 mph 20.7 mph N/A   Mostly Cloudy
1:13 PM 51.6 °F 35.4 °F 54% 29.95 in 10.0 mi WSW 5.8 mph 17.3 mph N/A   Mostly Cloudy
1:33 PM 53.2 °F 35.6 °F 51% 29.94 in 10.0 mi SW 9.2 mph 17.3 mph N/A   Mostly Cloudy
1:53 PM 53.1 °F 36.0 °F 52% 29.94 in 10.0 mi WSW 9.2 mph 18.4 mph N/A   Scattered Clouds
2:33 PM 53.4 °F 36.0 °F 52% 29.92 in 10.0 mi WSW 9.2 mph - N/A   Scattered Clouds
2:53 PM 54.0 °F 36.5 °F 52% 29.91 in 10.0 mi SW 6.9 mph - N/A   Mostly Cloudy
3:13 PM 54.3 °F 36.1 °F 50% 29.90 in 10.0 mi SW 11.5 mph 17.3 mph N/A   Mostly Cloudy
3:33 PM 55.9 °F 36.3 °F 48% 29.90 in 10.0 mi SW 10.4 mph - N/A   Mostly Cloudy
3:53 PM 55.0 °F 35.6 °F 48% 29.90 in 10.0 mi SW 10.4 mph 20.7 mph N/A   Mostly Cloudy
4:13 PM 53.8 °F 36.0 °F 51% 29.90 in 10.0 mi WSW 10.4 mph 19.6 mph N/A   Scattered Clouds
4:33 PM 53.6 °F 36.3 °F 52% 29.90 in 10.0 mi WSW 8.1 mph 17.3 mph N/A   Mostly Cloudy
4:53 PM 53.1 °F 36.1 °F 53% 29.90 in 10.0 mi West 11.5 mph 24.2 mph N/A   Mostly Cloudy
5:13 PM 52.2 °F 36.0 °F 54% 29.90 in 10.0 mi WSW 8.1 mph 21.9 mph N/A   Mostly Cloudy
5:33 PM 52.2 °F 35.4 °F 53% 29.90 in 10.0 mi WSW 4.6 mph 17.3 mph N/A   Mostly Cloudy
5:53 PM 52.2 °F 35.8 °F 54% 29.90 in 10.0 mi WSW 5.8 mph - N/A   Overcast
6:13 PM 52.2 °F 35.2 °F 53% 29.90 in 10.0 mi SW 6.9 mph - N/A   Overcast
6:33 PM 52.2 °F 36.0 °F 54% 29.90 in 10.0 mi SW 8.1 mph - N/A   Overcast
6:53 PM 52.2 °F 35.6 °F 53% 29.90 in 10.0 mi WSW 5.8 mph - N/A   Overcast
7:14 PM 52.2 °F 35.8 °F 54% 29.90 in 10.0 mi West 5.8 mph - N/A   Overcast
7:33 PM 51.8 °F 33.4 °F 50% 29.90 in 10.0 mi West 6.9 mph 18.4 mph N/A   Overcast
7:53 PM 51.8 °F 32.9 °F 49% 29.89 in 10.0 mi West 5.8 mph 9.2 mph N/A   Mostly Cloudy
8:14 PM 51.4 °F 33.8 °F 51% 29.89 in 10.0 mi West 4.6 mph - N/A   Mostly Cloudy
8:33 PM 51.8 °F 33.8 °F 50% 29.88 in 10.0 mi WSW 5.8 mph - N/A   Overcast
8:53 PM 51.8 °F 33.3 °F 49% 29.89 in 10.0 mi West 6.9 mph - N/A   Overcast
9:13 PM 51.8 °F 32.0 °F 47% 29.88 in 10.0 mi West 9.2 mph 20.7 mph N/A   Overcast
9:33 PM 51.6 °F 32.0 °F 47% 29.88 in 10.0 mi West 4.6 mph - N/A   Overcast
9:53 PM 51.4 °F 32.0 °F 47% 29.88 in 10.0 mi WNW 11.5 mph 19.6 mph N/A   Overcast
10:13 PM 50.0 °F 35.6 °F 58% 29.88 in 10.0 mi West 11.5 mph 20.7 mph N/A   Overcast
10:33 PM 49.1 °F 34.2 °F 56% 29.88 in 10.0 mi WNW 10.4 mph 23.0 mph N/A   Overcast
10:53 PM 48.9 °F 33.8 °F 56% 29.88 in 10.0 mi WNW 5.8 mph - N/A   Overcast
11:33 PM 48.2 °F 32.0 °F 54% 29.88 in 10.0 mi WNW 8.1 mph 18.4 mph N/A   Overcast
11:53 PM 48.0 °F 32.0 °F 54% 29.88 in 10.0 mi West 6.9 mph 21.9 mph N/A   Overcast